createdAt,value
2022-12-03T00:04:01.446Z,27.00
2022-12-03T00:09:05.048Z,28.00
2022-12-03T00:14:09.232Z,25.20
2022-12-03T00:19:12.111Z,26.80
2022-12-03T00:24:14.951Z,27.80
2022-12-03T00:29:19.053Z,26.40
2022-12-03T00:34:22.544Z,25.80
2022-12-03T00:39:25.294Z,28.20
2022-12-03T00:44:29.551Z,23.40
2022-12-03T00:49:32.479Z,26.20
2022-12-03T00:54:35.518Z,26.80
2022-12-03T00:59:39.634Z,28.00
2022-12-03T01:04:42.417Z,29.20
2022-12-03T01:09:45.290Z,29.60
2022-12-03T01:14:49.412Z,24.60
2022-12-03T01:19:52.808Z,25.80
2022-12-03T01:24:55.900Z,23.00
2022-12-03T01:30:00.114Z,24.00
2022-12-03T01:35:02.856Z,27.80
2022-12-03T01:40:07.033Z,24.80
2022-12-03T01:45:14.712Z,23.20
2022-12-03T01:50:20.702Z,24.80
2022-12-03T01:55:23.565Z,24.20
2022-12-03T02:00:27.830Z,26.20
2022-12-03T02:05:31.822Z,20.40
2022-12-03T02:10:36.022Z,21.20
2022-12-03T02:15:40.548Z,26.20
2022-12-03T02:20:47.902Z,23.80
2022-12-03T02:25:52.090Z,21.60
2022-12-03T02:30:54.974Z,22.80
2022-12-03T02:36:03.155Z,17.20
2022-12-03T02:41:08.996Z,22.40
2022-12-03T02:46:11.781Z,23.00
2022-12-03T02:51:14.533Z,23.00
2022-12-03T02:56:22.390Z,21.80
2022-12-03T03:01:25.225Z,21.00
2022-12-03T03:06:28.237Z,20.60
2022-12-03T03:11:32.353Z,21.40
2022-12-03T03:16:35.360Z,21.20
2022-12-03T03:21:39.840Z,22.00
2022-12-03T03:26:44.139Z,20.40
2022-12-03T03:31:47.136Z,18.80
2022-12-03T03:36:49.920Z,21.40
2022-12-03T03:41:54.053Z,18.00
2022-12-03T03:46:56.841Z,21.80
2022-12-03T03:51:59.595Z,22.40
2022-12-03T03:57:03.831Z,18.00
2022-12-03T04:02:06.609Z,21.00
2022-12-03T04:07:09.550Z,21.20
2022-12-03T04:12:31.147Z,21.00
2022-12-03T04:17:34.007Z,19.40
2022-12-03T04:22:42.713Z,18.60
2022-12-03T04:28:04.529Z,22.20
2022-12-03T04:33:24.803Z,18.40
2022-12-03T04:38:27.710Z,18.20
2022-12-03T04:43:34.388Z,17.40
2022-12-03T04:48:37.159Z,22.80
2022-12-03T04:53:45.963Z,18.40
2022-12-03T04:58:50.367Z,18.00
2022-12-03T05:03:53.459Z,17.60
2022-12-03T05:08:56.568Z,19.80
2022-12-03T05:14:01.520Z,18.60
2022-12-03T05:19:05.140Z,15.80
2022-12-03T05:24:08.232Z,18.80
2022-12-03T05:29:12.348Z,17.20
2022-12-03T05:34:15.095Z,16.20
2022-12-03T05:39:18.440Z,17.60
2022-12-03T05:44:22.560Z,15.60
2022-12-03T05:49:25.500Z,17.40
2022-12-03T05:54:28.357Z,16.20
2022-12-03T05:59:32.636Z,19.20
2022-12-03T06:04:35.389Z,17.20
2022-12-03T06:09:38.117Z,15.80
2022-12-03T06:14:42.382Z,15.60
2022-12-03T06:19:45.151Z,18.80
2022-12-03T06:24:47.943Z,13.40
2022-12-03T06:29:52.059Z,16.40
2022-12-03T06:34:55.194Z,15.20
2022-12-03T06:39:58.236Z,18.00
2022-12-03T06:45:02.377Z,15.80
2022-12-03T06:50:07.423Z,13.40
2022-12-03T06:55:10.811Z,14.00
2022-12-03T07:00:15.611Z,15.60
2022-12-03T07:05:18.564Z,14.80
2022-12-03T07:10:21.447Z,12.40
2022-12-03T07:15:25.591Z,14.80
2022-12-03T07:20:28.451Z,14.00
2022-12-03T07:25:33.323Z,17.00
2022-12-03T07:30:37.494Z,13.80
2022-12-03T07:35:40.320Z,15.80
2022-12-03T07:40:43.088Z,13.00
2022-12-03T07:45:47.251Z,17.00
2022-12-03T07:50:50.096Z,14.00
2022-12-03T07:55:53.075Z,13.00
2022-12-03T08:00:57.182Z,16.40
2022-12-03T08:06:00.156Z,16.00
2022-12-03T08:11:03.344Z,17.20
2022-12-03T08:16:15.156Z,30.40
2022-12-03T08:21:19.141Z,32.00
2022-12-03T08:26:23.650Z,26.60
2022-12-03T08:31:33.273Z,29.60
2022-12-03T08:36:36.731Z,27.60
2022-12-03T08:41:53.430Z,24.80
2022-12-03T08:47:02.072Z,25.00
2022-12-03T08:52:12.325Z,26.40
2022-12-03T08:57:23.748Z,25.60
2022-12-03T09:02:32.123Z,22.80
2022-12-03T09:07:35.292Z,22.00
2022-12-03T09:12:38.139Z,23.00
2022-12-03T09:17:42.276Z,21.00
2022-12-03T09:22:45.198Z,22.80
2022-12-03T09:27:47.961Z,23.20
2022-12-03T09:32:52.127Z,24.00
2022-12-03T09:37:54.903Z,23.00
2022-12-03T09:42:58.694Z,23.20
2022-12-03T09:48:02.917Z,23.60
2022-12-03T09:53:05.754Z,19.20
2022-12-03T09:58:10.928Z,23.40
2022-12-03T10:03:16.145Z,18.00
2022-12-03T10:08:21.352Z,18.00
2022-12-03T10:13:26.359Z,21.00
2022-12-03T10:18:36.897Z,21.20
2022-12-03T10:23:43.615Z,20.40
2022-12-03T10:28:47.511Z,21.80
2022-12-03T10:33:53.567Z,22.00
2022-12-03T10:39:11.063Z,20.20
2022-12-03T10:44:17.282Z,18.00
2022-12-03T10:49:21.465Z,19.20
2022-12-03T10:54:25.095Z,18.00
2022-12-03T10:59:30.903Z,22.60
2022-12-03T11:04:35.988Z,19.00
2022-12-03T11:09:39.000Z,19.40
2022-12-03T11:15:06.405Z,18.20
2022-12-03T11:20:16.864Z,17.60
2022-12-03T11:25:46.825Z,17.20
2022-12-03T11:31:01.343Z,16.00
2022-12-03T11:36:36.537Z,20.20
2022-12-03T11:41:43.714Z,17.80
2022-12-03T11:46:46.875Z,15.20
2022-12-03T11:51:51.102Z,18.60
2022-12-03T11:56:54.039Z,19.40
2022-12-03T12:01:56.756Z,19.40
2022-12-03T12:07:00.955Z,40.25
2022-12-03T12:12:19.028Z,45.33
2022-12-03T12:17:32.623Z,45.00
2022-12-03T12:22:36.812Z,37.50
2022-12-03T12:27:45.077Z,34.00
2022-12-03T12:32:48.383Z,39.50
2022-12-03T12:37:58.998Z,33.00
2022-12-03T12:43:11.566Z,28.25
2022-12-03T12:48:23.154Z,29.75
2022-12-03T12:53:28.192Z,28.00
2022-12-03T12:58:32.917Z,29.25
2022-12-03T13:03:37.598Z,27.75
2022-12-03T13:08:43.664Z,28.00
2022-12-03T13:13:46.413Z,30.60
2022-12-03T13:18:49.781Z,25.00
2022-12-03T13:23:55.160Z,27.00
2022-12-03T13:28:57.946Z,25.25
2022-12-03T13:34:00.959Z,29.00
2022-12-03T13:39:11.198Z,26.20
2022-12-03T13:44:16.787Z,27.25
2022-12-03T13:49:21.912Z,27.00
2022-12-03T13:54:27.671Z,24.00
2022-12-03T13:59:30.467Z,23.00
2022-12-03T14:04:33.420Z,23.40
2022-12-03T14:09:37.702Z,25.40
2022-12-03T14:14:40.672Z,23.20
2022-12-03T14:19:43.504Z,23.60
2022-12-03T14:24:47.782Z,22.60
2022-12-03T14:29:50.750Z,24.75
2022-12-03T14:34:53.588Z,24.60
2022-12-03T14:39:58.014Z,23.20
2022-12-03T14:45:00.957Z,22.60
2022-12-03T14:50:05.088Z,24.60
2022-12-03T14:55:10.050Z,23.60
2022-12-03T15:00:28.076Z,23.80
2022-12-03T15:05:31.090Z,24.40
2022-12-03T15:10:35.222Z,23.40
2022-12-03T15:15:37.986Z,21.40
2022-12-03T15:20:40.802Z,23.80
2022-12-03T15:25:45.069Z,24.00
2022-12-03T15:30:47.830Z,22.60
2022-12-03T15:35:50.570Z,24.00
2022-12-03T15:40:54.779Z,22.60
2022-12-03T15:45:57.569Z,23.20
2022-12-03T15:51:00.387Z,25.20
2022-12-03T15:56:04.943Z,22.60
2022-12-03T16:01:07.859Z,22.40
2022-12-03T16:06:10.615Z,25.80
2022-12-03T16:11:14.759Z,21.40
2022-12-03T16:16:17.557Z,22.20
2022-12-03T16:21:25.098Z,23.20
2022-12-03T16:26:31.285Z,18.80
2022-12-03T16:31:35.178Z,21.40
2022-12-03T16:36:38.150Z,19.40
2022-12-03T16:41:42.337Z,23.60
2022-12-03T16:46:45.277Z,22.60
2022-12-03T16:51:50.012Z,25.00
2022-12-03T16:56:54.225Z,25.60
2022-12-03T17:01:57.231Z,22.40
2022-12-03T17:07:00.254Z,24.00
2022-12-03T17:12:05.007Z,22.75
2022-12-03T17:17:07.966Z,22.40
2022-12-03T17:22:11.235Z,25.40
2022-12-03T17:27:15.772Z,22.00
2022-12-03T17:32:18.776Z,27.00
2022-12-03T17:37:21.693Z,26.50
2022-12-03T17:42:26.063Z,22.40
2022-12-03T17:47:29.039Z,26.50
2022-12-03T17:52:32.047Z,24.80
2022-12-03T17:57:36.538Z,26.00
2022-12-03T18:02:39.535Z,23.20
2022-12-03T18:07:42.471Z,24.60
2022-12-03T18:12:47.478Z,25.75
2022-12-03T18:17:50.376Z,23.20
2022-12-03T18:22:53.264Z,24.40
2022-12-03T18:27:57.505Z,23.00
2022-12-03T18:33:00.545Z,22.80
2022-12-03T18:38:03.308Z,22.60
2022-12-03T18:43:11.788Z,25.50
2022-12-03T18:48:14.928Z,21.40
2022-12-03T18:53:19.094Z,21.80
2022-12-03T18:58:23.548Z,23.40
2022-12-03T19:03:26.432Z,24.20
2022-12-03T19:08:29.478Z,23.60
2022-12-03T19:13:33.634Z,24.50
2022-12-03T19:18:36.695Z,22.40
2022-12-03T19:23:39.731Z,22.25
2022-12-03T19:28:44.272Z,26.40
2022-12-03T19:33:47.182Z,26.50
2022-12-03T19:38:56.458Z,27.25
2022-12-03T19:44:01.714Z,27.75
2022-12-03T19:49:07.351Z,30.50
2022-12-03T19:54:11.787Z,26.80
2022-12-03T19:59:16.036Z,30.25
2022-12-03T20:04:18.859Z,28.00
2022-12-03T20:09:22.551Z,27.50
2022-12-03T20:14:26.695Z,30.25
2022-12-03T20:19:29.441Z,31.25
2022-12-03T20:24:32.384Z,29.80
2022-12-03T20:29:36.546Z,31.00
2022-12-03T20:34:39.551Z,30.25
2022-12-03T20:39:42.587Z,32.75
2022-12-03T20:44:46.837Z,32.25
2022-12-03T20:49:49.573Z,32.50
2022-12-03T20:54:52.398Z,31.00
2022-12-03T20:59:56.828Z,36.25
2022-12-03T21:04:59.806Z,34.00
2022-12-03T21:10:02.597Z,30.60
2022-12-03T21:15:07.688Z,29.75
2022-12-03T21:20:11.181Z,29.20
2022-12-03T21:25:13.972Z,31.25
2022-12-03T21:30:18.156Z,33.00
2022-12-03T21:35:21.087Z,30.50
2022-12-03T21:40:23.857Z,28.50
2022-12-03T21:45:28.089Z,31.25
2022-12-03T21:50:30.853Z,30.50
2022-12-03T21:55:33.819Z,31.50
2022-12-03T22:00:38.079Z,31.50
2022-12-03T22:05:41.049Z,37.00
2022-12-03T22:10:43.823Z,31.50
2022-12-03T22:15:48.031Z,29.25
2022-12-03T22:20:50.977Z,31.25
2022-12-03T22:25:58.945Z,34.00
2022-12-03T22:31:06.848Z,32.25
2022-12-03T22:36:17.970Z,30.25
2022-12-03T22:41:22.615Z,31.75
2022-12-03T22:46:26.806Z,29.25
2022-12-03T22:51:30.245Z,30.00
2022-12-03T22:56:33.153Z,28.75
2022-12-03T23:01:38.726Z,31.00
2022-12-03T23:06:41.780Z,28.25
2022-12-03T23:11:45.194Z,30.50
2022-12-03T23:16:49.341Z,29.50
2022-12-03T23:21:52.498Z,29.50
2022-12-03T23:26:55.280Z,26.75
2022-12-03T23:31:59.640Z,27.50
2022-12-03T23:37:02.421Z,28.75
2022-12-03T23:42:05.245Z,26.00
2022-12-03T23:47:09.387Z,29.00
2022-12-03T23:52:12.194Z,28.20
2022-12-03T23:57:15.902Z,26.20
